createdAt,value
2023-01-22T05:54:23.807Z,1.89
2023-01-22T05:56:52.655Z,2.06
2023-01-22T05:59:20.544Z,2.17
2023-01-22T06:01:56.725Z,2.29
2023-01-22T06:04:24.503Z,2.05
2023-01-22T06:06:54.661Z,2.17
2023-01-22T06:09:24.482Z,1.64
2023-01-22T06:11:52.386Z,1.60
2023-01-22T06:14:21.614Z,1.38
2023-01-22T06:16:49.821Z,1.48
2023-01-22T06:19:40.951Z,1.60
2023-01-22T06:22:09.253Z,1.34
2023-01-22T06:24:44.672Z,1.53
2023-01-22T06:27:14.444Z,1.76
2023-01-22T06:29:51.474Z,1.86
2023-01-22T06:32:20.078Z,1.77
2023-01-22T06:34:47.834Z,1.18
2023-01-22T06:37:17.047Z,1.03
2023-01-22T06:39:47.855Z,1.21
2023-01-22T06:42:40.123Z,1.18
2023-01-22T06:45:08.339Z,1.25
2023-01-22T06:47:37.405Z,1.37
2023-01-22T06:50:05.067Z,1.47
2023-01-22T06:52:32.907Z,1.52
2023-01-22T06:55:00.244Z,1.48
2023-01-22T06:57:27.844Z,1.64
2023-01-22T06:59:55.149Z,1.08
2023-01-22T07:02:22.412Z,1.20
2023-01-22T07:04:50.557Z,1.11
2023-01-22T07:07:18.533Z,0.96
2023-01-22T07:09:46.377Z,0.82
2023-01-22T07:12:13.654Z,1.23
2023-01-22T07:14:40.975Z,1.18
2023-01-22T07:17:08.247Z,1.34
2023-01-22T07:19:35.487Z,1.49
2023-01-22T07:22:02.842Z,1.34
2023-01-22T07:24:30.128Z,1.12
2023-01-22T07:26:57.436Z,1.04
2023-01-22T07:29:25.067Z,1.37
2023-01-22T07:31:52.573Z,1.77
2023-01-22T07:34:19.993Z,2.14
2023-01-22T07:36:47.341Z,2.34
2023-01-22T07:39:14.846Z,2.51
2023-01-22T07:41:42.358Z,2.39
2023-01-22T07:44:12.734Z,2.44
2023-01-22T07:46:40.082Z,2.61
2023-01-22T07:49:07.604Z,2.07
2023-01-22T07:51:34.947Z,1.95
2023-01-22T07:54:03.148Z,1.98
2023-01-22T07:56:30.384Z,2.27
2023-01-22T07:58:57.634Z,2.62
2023-01-22T08:01:24.968Z,2.62
2023-01-22T08:03:52.630Z,2.52
2023-01-22T08:06:21.089Z,2.68
2023-01-22T08:08:50.853Z,2.85
2023-01-22T08:11:18.906Z,3.09
2023-01-22T08:13:46.274Z,3.07
2023-01-22T08:16:13.662Z,2.69
2023-01-22T08:18:41.012Z,2.74
2023-01-22T08:21:08.471Z,3.15
2023-01-22T08:23:35.755Z,3.10
2023-01-22T08:26:04.339Z,3.08
2023-01-22T08:28:32.194Z,2.97
2023-01-22T08:31:01.489Z,2.81
2023-01-22T08:33:31.111Z,2.80
2023-01-22T08:35:58.738Z,3.11
2023-01-22T08:38:26.025Z,3.27
2023-01-22T08:40:53.599Z,3.44
2023-01-22T08:43:21.437Z,3.58
2023-01-22T08:45:50.554Z,3.65
2023-01-22T08:48:18.448Z,3.70
2023-01-22T08:50:45.813Z,3.57
2023-01-22T08:53:13.927Z,3.48
2023-01-22T08:55:41.688Z,3.00
2023-01-22T08:58:09.656Z,3.43
2023-01-22T09:00:36.952Z,2.89
2023-01-22T09:03:04.384Z,2.51
2023-01-22T09:05:31.723Z,2.70
2023-01-22T09:07:59.535Z,2.46
2023-01-22T09:10:27.104Z,2.66
2023-01-22T09:12:54.987Z,2.61
2023-01-22T09:15:22.349Z,2.61
2023-01-22T09:17:50.107Z,3.27
2023-01-22T09:20:18.185Z,2.98
2023-01-22T09:22:47.024Z,3.09
2023-01-22T09:25:15.335Z,3.13
2023-01-22T09:27:42.684Z,3.28
2023-01-22T09:30:11.099Z,3.40
2023-01-22T09:32:38.492Z,3.52
2023-01-22T09:35:06.858Z,3.61
2023-01-22T09:37:34.563Z,4.09
2023-01-22T09:40:01.859Z,4.69
2023-01-22T09:42:37.171Z,4.84
2023-01-22T09:45:11.349Z,5.15
2023-01-22T09:47:44.352Z,5.24
2023-01-22T09:50:19.433Z,4.98
2023-01-22T09:52:49.024Z,4.98
2023-01-22T09:55:20.581Z,5.50
2023-01-22T09:57:52.206Z,5.27
2023-01-22T10:00:24.057Z,5.39
2023-01-22T10:03:00.468Z,5.85
2023-01-22T10:05:36.751Z,6.27
2023-01-22T10:08:13.731Z,6.58
2023-01-22T10:10:41.695Z,6.85
2023-01-22T10:13:20.479Z,6.89
2023-01-22T10:15:50.291Z,6.75
2023-01-22T10:18:28.628Z,6.65
2023-01-22T10:20:58.413Z,6.09
2023-01-22T10:23:26.466Z,6.54
2023-01-22T10:25:59.903Z,6.21
2023-01-22T10:28:28.237Z,6.25
2023-01-22T10:30:58.967Z,6.03
2023-01-22T10:33:27.993Z,5.77
2023-01-22T10:35:56.962Z,5.99
2023-01-22T10:38:30.660Z,6.07
2023-01-22T10:41:03.215Z,6.02
2023-01-22T10:43:35.947Z,6.12
2023-01-22T10:46:24.675Z,6.05
2023-01-22T10:49:03.278Z,6.28
2023-01-22T10:51:34.426Z,6.32
2023-01-22T10:54:02.390Z,6.45
2023-01-22T10:56:40.339Z,6.41
2023-01-22T10:59:24.728Z,6.27
2023-01-22T11:02:01.841Z,6.93
2023-01-22T11:04:33.086Z,7.28
2023-01-22T11:07:08.502Z,7.33
2023-01-22T11:10:07.966Z,7.06
2023-01-22T11:12:42.794Z,6.62
2023-01-22T11:15:19.980Z,6.28
2023-01-22T11:17:51.754Z,6.71
2023-01-22T11:20:37.528Z,6.82
2023-01-22T11:23:11.354Z,7.18
2023-01-22T11:25:45.789Z,7.54
2023-01-22T11:28:41.571Z,7.75
2023-01-22T11:31:28.191Z,8.01
2023-01-22T11:34:28.697Z,8.23
2023-01-22T11:37:09.633Z,7.34
2023-01-22T11:39:48.887Z,7.21
2023-01-22T11:42:50.046Z,6.45
2023-01-22T11:45:56.998Z,7.15
2023-01-22T11:48:40.986Z,6.80
2023-01-22T11:51:17.745Z,6.44
2023-01-22T11:54:32.666Z,6.65
2023-01-22T11:57:03.318Z,6.55
2023-01-22T11:59:53.007Z,6.15
2023-01-22T12:02:42.119Z,6.10
2023-01-22T12:05:36.250Z,6.20
2023-01-22T12:08:22.282Z,6.01
2023-01-22T12:11:08.878Z,6.14
2023-01-22T12:13:42.021Z,6.00
2023-01-22T12:16:41.739Z,6.15
2023-01-22T12:19:15.003Z,5.87
2023-01-22T12:22:13.218Z,6.37
2023-01-22T12:25:00.426Z,6.20
2023-01-22T12:27:38.879Z,6.05
2023-01-22T12:30:30.045Z,5.83
2023-01-22T12:33:00.776Z,5.71
2023-01-22T12:35:31.438Z,5.87
2023-01-22T12:38:15.292Z,5.72
2023-01-22T12:41:20.280Z,5.73
2023-01-22T12:44:06.834Z,5.70
2023-01-22T12:46:50.289Z,5.75
2023-01-22T12:49:18.874Z,6.09
2023-01-22T12:51:52.129Z,6.50
2023-01-22T12:54:32.428Z,6.25
2023-01-22T12:57:22.837Z,6.36
2023-01-22T12:59:54.719Z,6.40
2023-01-22T13:02:24.158Z,6.47
2023-01-22T13:04:51.570Z,7.16
2023-01-22T13:07:30.979Z,6.94
2023-01-22T13:10:24.495Z,6.45
2023-01-22T13:12:59.149Z,6.58
2023-01-22T13:15:29.787Z,6.61
2023-01-22T13:18:07.265Z,6.76
2023-01-22T13:21:08.289Z,7.12
2023-01-22T13:23:41.901Z,7.09
2023-01-22T13:26:27.832Z,7.89
2023-01-22T13:29:01.632Z,8.01
2023-01-22T13:31:30.360Z,8.52
2023-01-22T13:34:01.277Z,7.81
2023-01-22T13:36:28.590Z,7.98
2023-01-22T13:38:58.099Z,8.08
2023-01-22T13:41:36.628Z,7.68
2023-01-22T13:44:06.237Z,7.43
2023-01-22T13:46:38.058Z,7.32
2023-01-22T13:49:10.870Z,7.59
2023-01-22T13:51:39.173Z,7.12
2023-01-22T13:54:08.159Z,7.36
2023-01-22T13:56:35.993Z,7.58
2023-01-22T13:59:28.713Z,7.42
2023-01-22T14:01:56.056Z,7.34
2023-01-22T14:04:37.009Z,7.63
2023-01-22T14:07:05.892Z,7.50
2023-01-22T14:09:36.935Z,7.66
2023-01-22T14:12:16.604Z,7.56
2023-01-22T14:14:44.519Z,7.38
2023-01-22T14:17:29.160Z,7.36
2023-01-22T14:19:57.229Z,7.40
2023-01-22T14:22:25.283Z,6.81
2023-01-22T14:24:52.956Z,7.00
2023-01-22T14:27:22.470Z,6.46
2023-01-22T14:29:50.736Z,6.68
2023-01-22T14:32:18.628Z,6.48
2023-01-22T14:34:46.419Z,6.80
2023-01-22T14:37:17.847Z,6.88
2023-01-22T14:39:45.357Z,6.66
2023-01-22T14:42:12.943Z,6.91
2023-01-22T14:44:40.812Z,6.32
2023-01-22T14:47:08.206Z,6.36
2023-01-22T14:49:35.596Z,6.30
2023-01-22T14:52:03.282Z,5.90
2023-01-22T14:54:30.565Z,5.79
2023-01-22T14:57:02.824Z,5.85
2023-01-22T14:59:30.153Z,5.74
2023-01-22T15:01:57.558Z,5.58
2023-01-22T15:04:24.804Z,5.64
2023-01-22T15:06:52.201Z,5.65
2023-01-22T15:09:19.430Z,5.96
2023-01-22T15:11:47.365Z,6.16
2023-01-22T15:14:15.366Z,6.26
2023-01-22T15:16:43.184Z,5.68
2023-01-22T15:19:10.672Z,5.19
2023-01-22T15:21:37.991Z,5.31
2023-01-22T15:24:05.944Z,5.19
2023-01-22T15:26:36.605Z,4.87
2023-01-22T15:29:06.225Z,5.25
2023-01-22T15:31:33.972Z,5.42
2023-01-22T15:34:02.164Z,4.90
2023-01-22T15:36:34.509Z,4.64
2023-01-22T15:39:02.977Z,5.16
2023-01-22T15:41:32.726Z,5.34
2023-01-22T15:44:01.971Z,5.26
2023-01-22T15:46:37.796Z,5.19
2023-01-22T15:49:08.238Z,5.27
2023-01-22T15:51:37.045Z,5.27
2023-01-22T15:54:06.989Z,4.72
2023-01-22T15:56:38.193Z,4.71
2023-01-22T15:59:06.161Z,5.04
2023-01-22T16:01:33.684Z,5.21
2023-01-22T16:04:02.932Z,5.49
2023-01-22T16:06:32.960Z,4.95
2023-01-22T16:09:01.815Z,4.34
2023-01-22T16:11:30.446Z,4.12
2023-01-22T16:13:59.151Z,4.60
2023-01-22T16:16:36.212Z,4.81
2023-01-22T16:19:06.797Z,4.86
2023-01-22T16:21:35.001Z,4.37
2023-01-22T16:24:03.026Z,3.99
2023-01-22T16:26:33.468Z,3.89
2023-01-22T16:29:04.054Z,4.00
2023-01-22T16:31:33.760Z,4.38
2023-01-22T16:34:07.732Z,4.56
2023-01-22T16:36:35.448Z,4.66
2023-01-22T16:39:03.758Z,4.47
2023-01-22T16:41:35.900Z,4.14
2023-01-22T16:44:13.278Z,3.85
2023-01-22T16:46:42.687Z,4.15
2023-01-22T16:49:14.772Z,4.33
2023-01-22T16:52:20.639Z,4.22
2023-01-22T16:54:49.635Z,4.27
2023-01-22T16:57:18.060Z,4.22
2023-01-22T16:59:45.489Z,4.01
2023-01-22T17:02:15.175Z,4.36
2023-01-22T17:04:42.868Z,4.55
2023-01-22T17:07:23.804Z,4.69
2023-01-22T17:09:59.723Z,4.77
2023-01-22T17:12:27.273Z,4.87
2023-01-22T17:14:54.573Z,4.82
2023-01-22T17:17:22.758Z,4.80
2023-01-22T17:19:50.019Z,4.69
2023-01-22T17:22:17.280Z,4.72
2023-01-22T17:24:44.612Z,4.80
2023-01-22T17:27:18.130Z,4.38
2023-01-22T17:29:45.650Z,4.19
2023-01-22T17:32:13.015Z,4.23
2023-01-22T17:34:42.014Z,4.53
2023-01-22T17:37:11.157Z,4.72
2023-01-22T17:39:38.656Z,4.81
2023-01-22T17:42:07.046Z,4.70
2023-01-22T17:44:34.859Z,4.68
2023-01-22T17:47:03.487Z,4.65
2023-01-22T17:49:33.164Z,4.73
2023-01-22T17:52:01.657Z,4.67
2023-01-22T17:54:29.162Z,4.70
2023-01-22T17:56:56.498Z,4.66
2023-01-22T17:59:24.513Z,4.54
2023-01-22T18:01:52.694Z,4.57
2023-01-22T18:04:20.049Z,4.51
2023-01-22T18:06:47.866Z,4.21
2023-01-22T18:09:15.601Z,4.44
2023-01-22T18:11:43.069Z,4.46
2023-01-22T18:14:22.107Z,4.49
2023-01-22T18:16:51.066Z,4.23
2023-01-22T18:19:18.986Z,4.36
2023-01-22T18:21:46.402Z,4.51
2023-01-22T18:24:14.222Z,4.59
2023-01-22T18:26:42.079Z,4.67
2023-01-22T18:29:11.624Z,4.63
2023-01-22T18:31:39.813Z,4.66
2023-01-22T18:34:08.356Z,4.55
2023-01-22T18:36:38.805Z,4.61
2023-01-22T18:39:09.483Z,4.17
2023-01-22T18:41:39.896Z,4.34
2023-01-22T18:44:09.133Z,4.46
2023-01-22T18:46:39.093Z,4.50
2023-01-22T18:49:11.025Z,4.19
2023-01-22T18:51:40.325Z,4.42
2023-01-22T18:54:08.332Z,4.24
2023-01-22T18:56:36.854Z,4.02
2023-01-22T18:59:05.652Z,4.19
2023-01-22T19:01:37.095Z,4.36
2023-01-22T19:04:08.745Z,4.32
2023-01-22T19:06:38.902Z,4.32
2023-01-22T19:09:14.038Z,4.20
2023-01-22T19:11:43.463Z,4.10
2023-01-22T19:14:14.307Z,4.24
2023-01-22T19:16:44.756Z,4.31
2023-01-22T19:19:14.645Z,3.90
2023-01-22T19:21:47.124Z,3.66
2023-01-22T19:24:17.642Z,3.68
2023-01-22T19:26:46.584Z,4.00
2023-01-22T19:29:19.960Z,4.15
2023-01-22T19:31:51.922Z,3.60
2023-01-22T19:34:24.901Z,3.47
2023-01-22T19:36:57.840Z,3.63
2023-01-22T19:39:25.900Z,3.91
2023-01-22T19:41:55.218Z,4.02
2023-01-22T19:44:23.028Z,4.24
2023-01-22T19:46:50.482Z,4.24
2023-01-22T19:49:17.837Z,4.12
2023-01-22T19:51:45.162Z,3.97
2023-01-22T19:54:13.454Z,3.96
2023-01-22T19:56:45.558Z,4.17
2023-01-22T19:59:16.491Z,4.36
2023-01-22T20:01:45.619Z,4.27
2023-01-22T20:04:26.145Z,4.25
2023-01-22T20:07:01.988Z,4.05
2023-01-22T20:09:30.336Z,3.80
2023-01-22T20:11:58.544Z,3.76
2023-01-22T20:14:33.004Z,4.00
2023-01-22T20:17:02.195Z,4.20
2023-01-22T20:19:30.672Z,4.08
2023-01-22T20:21:59.512Z,3.83
2023-01-22T20:24:28.257Z,3.76
2023-01-22T20:26:56.855Z,3.91
2023-01-22T20:29:24.728Z,3.92
2023-01-22T20:31:53.018Z,3.90
2023-01-22T20:34:21.233Z,3.95
2023-01-22T20:36:48.962Z,3.94
2023-01-22T20:39:16.469Z,4.16
2023-01-22T20:41:45.623Z,4.17
2023-01-22T20:44:14.006Z,3.58
2023-01-22T20:46:43.750Z,3.54
2023-01-22T20:49:12.145Z,3.10
2023-01-22T20:51:41.929Z,3.37
2023-01-22T20:54:09.638Z,3.17
2023-01-22T20:56:36.932Z,2.95
2023-01-22T20:59:17.287Z,2.93
2023-01-22T21:01:44.902Z,2.93
2023-01-22T21:04:13.185Z,2.86
2023-01-22T21:06:40.746Z,2.94
2023-01-22T21:09:10.249Z,3.18
2023-01-22T21:11:39.789Z,3.30
2023-01-22T21:14:09.294Z,3.25
2023-01-22T21:16:39.991Z,3.42
2023-01-22T21:19:17.513Z,3.49
2023-01-22T21:21:45.660Z,3.56
2023-01-22T21:24:13.619Z,3.55
2023-01-22T21:26:41.688Z,3.61
2023-01-22T21:29:13.917Z,3.41
2023-01-22T21:31:41.985Z,3.24
2023-01-22T21:34:10.551Z,2.85
2023-01-22T21:36:41.115Z,2.79
2023-01-22T21:39:14.516Z,2.96
2023-01-22T21:41:45.998Z,3.10
2023-01-22T21:44:37.433Z,3.14
2023-01-22T21:47:05.544Z,2.95
2023-01-22T21:49:34.855Z,2.62
2023-01-22T21:52:05.880Z,2.52
2023-01-22T21:54:39.728Z,2.71
2023-01-22T21:57:10.699Z,2.80
2023-01-22T21:59:38.009Z,2.98
2023-01-22T22:02:07.002Z,3.26
2023-01-22T22:04:34.792Z,3.06
2023-01-22T22:07:02.547Z,3.11
2023-01-22T22:09:30.652Z,3.13
2023-01-22T22:11:59.836Z,3.09
2023-01-22T22:14:27.663Z,3.30
2023-01-22T22:16:55.721Z,3.26
2023-01-22T22:19:23.928Z,3.03
2023-01-22T22:21:52.086Z,2.88
2023-01-22T22:24:20.458Z,3.09
2023-01-22T22:26:48.070Z,3.20
2023-01-22T22:29:16.014Z,3.22
2023-01-22T22:31:43.335Z,3.18
2023-01-22T22:34:10.698Z,3.09
2023-01-22T22:36:39.027Z,3.12
2023-01-22T22:39:06.886Z,2.78
2023-01-22T22:41:39.352Z,2.78
2023-01-22T22:44:07.521Z,2.89
2023-01-22T22:46:37.217Z,2.94
2023-01-22T22:49:05.344Z,3.06
2023-01-22T22:51:39.372Z,2.97
2023-01-22T22:54:18.128Z,2.98
2023-01-22T22:56:47.936Z,3.00
2023-01-22T22:59:18.491Z,2.84
